Weather at Andrew's Field Airport

Public forecast

Using degrees Celsius for public forecast. Weather courtesy of forecast.io.

Closest aviation weather report (METAR) to Andrew's Field Airport

Closest report is Cape Town International Airport, 85.7 nm (158.7 km) WNW.

2024/07/20 18:07 (retrieved 29 minutes ago)

FACT 201807Z 10003KT 9999 SCT045 11/08 Q1026

Closest aviation forecast (TAF) to Andrew's Field Airport

Closest forecast is Cape Town International Airport, 85.7 nm (158.7 km) WNW.

2024/07/20 18:00 (retrieved 36 minutes ago)

TAF FACT 201600Z 2018/2124 VRB03KT 9999 BKN040 TX17/2112Z TN07/2106Z PROB30 TEMPO 2023/2104 3000 BR NSC FM210900 17008KT CAVOK